createdAt,value
2019-06-27T00:00:06.360Z,22.3
2019-06-27T00:01:06.399Z,22.2
2019-06-27T00:02:06.770Z,22.2
2019-06-27T00:03:06.140Z,22.2
2019-06-27T00:04:06.549Z,22.2
2019-06-27T00:05:06.963Z,22.2
2019-06-27T00:06:06.275Z,22.2
2019-06-27T00:07:06.497Z,22.2
2019-06-27T00:08:06.802Z,22.2
2019-06-27T00:09:06.208Z,22.2
2019-06-27T00:10:06.761Z,22.2
2019-06-27T00:11:06.042Z,22.1
2019-06-27T00:12:06.304Z,22.2
2019-06-27T00:13:06.643Z,22.2
2019-06-27T00:14:05.859Z,22.2
2019-06-27T00:15:06.294Z,22.2
2019-06-27T00:16:06.620Z,22.1
2019-06-27T00:17:05.925Z,22.1
2019-06-27T00:18:06.228Z,22.1
2019-06-27T00:19:06.545Z,22.1
2019-06-27T00:20:07.035Z,22.1
2019-06-27T00:21:06.308Z,22.1
2019-06-27T00:22:06.679Z,22.1
2019-06-27T00:23:06.077Z,22.1
2019-06-27T00:24:06.378Z,22.1
2019-06-27T00:25:06.834Z,22.1
2019-06-27T00:26:06.184Z,22.1
2019-06-27T00:27:06.460Z,22.1
2019-06-27T00:28:06.852Z,22.1
2019-06-27T00:29:06.148Z,22.1
2019-06-27T00:30:06.699Z,22.1
2019-06-27T00:31:06.020Z,22
2019-06-27T00:32:06.302Z,22.1
2019-06-27T00:33:06.674Z,22
2019-06-27T00:34:05.981Z,22.1
2019-06-27T00:35:06.455Z,22.1
2019-06-27T00:36:06.698Z,22.1
2019-06-27T00:37:05.977Z,22.1
2019-06-27T00:38:06.252Z,22.1
2019-06-27T00:39:06.642Z,22.1
2019-06-27T00:40:06.271Z,22.1
2019-06-27T00:41:06.555Z,22.1
2019-06-27T00:42:06.851Z,22.1
2019-06-27T00:43:06.396Z,22.1
2019-06-27T00:44:06.728Z,22.1
2019-06-27T00:45:06.081Z,22.1
2019-06-27T00:46:06.099Z,22.1
2019-06-27T00:47:06.332Z,22.1
2019-06-27T00:48:06.673Z,22.1
2019-06-27T00:49:06.011Z,22.1
2019-06-27T00:50:06.542Z,22
2019-06-27T00:51:05.932Z,22.1
2019-06-27T00:52:06.245Z,22.1
2019-06-27T00:53:06.546Z,22.1
2019-06-27T00:54:06.877Z,22
2019-06-27T00:55:06.463Z,22
2019-06-27T00:56:06.739Z,22
2019-06-27T00:57:17.019Z,22
2019-06-27T00:58:06.352Z,21.9
2019-06-27T00:59:06.643Z,22
2019-06-27T01:00:06.325Z,22
2019-06-27T01:01:06.356Z,22
2019-06-27T01:02:06.719Z,22
2019-06-27T01:03:05.989Z,22.1
2019-06-27T01:04:06.307Z,22
2019-06-27T01:05:06.801Z,22
2019-06-27T01:06:06.309Z,22
2019-06-27T01:07:06.544Z,22.1
2019-06-27T01:08:06.816Z,22
2019-06-27T01:09:06.222Z,22
2019-06-27T01:10:06.765Z,22
2019-06-27T01:11:06.081Z,22
2019-06-27T01:12:06.350Z,22
2019-06-27T01:13:06.705Z,22.1
2019-06-27T01:14:06.083Z,22.1
2019-06-27T01:15:06.544Z,22.1
2019-06-27T01:16:06.796Z,22.1
2019-06-27T01:17:06.134Z,22.1
2019-06-27T01:18:06.394Z,22
2019-06-27T01:19:06.825Z,22
2019-06-27T01:20:06.341Z,22
2019-06-27T01:21:06.604Z,21.9
2019-06-27T01:22:05.912Z,21.9
2019-06-27T01:23:06.218Z,21.8
2019-06-27T01:24:06.581Z,21.9
2019-06-27T01:25:07.005Z,21.9
2019-06-27T01:26:06.368Z,21.9
2019-06-27T01:27:06.647Z,21.9
2019-06-27T01:28:05.903Z,21.9
2019-06-27T01:29:06.205Z,21.9
2019-06-27T01:30:06.741Z,21.9
2019-06-27T01:31:05.997Z,21.9
2019-06-27T01:32:06.290Z,21.9
2019-06-27T01:33:06.531Z,22
2019-06-27T01:34:06.841Z,21.9
2019-06-27T01:35:07.477Z,21.9
2019-06-27T01:36:06.799Z,21.9
2019-06-27T01:37:06.065Z,21.9
2019-06-27T01:38:06.405Z,21.9
2019-06-27T01:39:06.853Z,21.9
2019-06-27T01:40:06.519Z,21.9
2019-06-27T01:41:06.813Z,21.9
2019-06-27T01:42:06.136Z,21.9
2019-06-27T01:43:06.473Z,21.9
2019-06-27T01:44:06.770Z,21.9
2019-06-27T01:45:06.304Z,21.9
2019-06-27T01:46:06.621Z,21.9
2019-06-27T01:47:05.932Z,21.9
2019-06-27T01:48:06.245Z,22
2019-06-27T01:49:06.575Z,21.9
2019-06-27T01:50:07.120Z,21.9
2019-06-27T01:51:06.425Z,22
2019-06-27T01:52:06.736Z,21.9
2019-06-27T01:53:06.047Z,21.9
2019-06-27T01:54:06.340Z,21.9
2019-06-27T01:55:06.772Z,21.9
2019-06-27T01:56:06.110Z,21.9
2019-06-27T01:57:06.392Z,21.9
2019-06-27T01:58:06.681Z,21.9
2019-06-27T01:59:05.966Z,21.9
2019-06-27T02:00:06.585Z,21.9
2019-06-27T02:01:06.513Z,21.9
2019-06-27T02:02:06.878Z,21.9
2019-06-27T02:03:06.183Z,21.9
2019-06-27T02:04:06.566Z,21.9
2019-06-27T02:05:06.066Z,21.9
2019-06-27T02:06:06.400Z,21.9
2019-06-27T02:07:06.699Z,21.9
2019-06-27T02:08:06.009Z,21.9
2019-06-27T02:09:06.476Z,21.9
2019-06-27T02:10:07.037Z,21.9
2019-06-27T02:11:06.259Z,21.9
2019-06-27T02:12:06.489Z,21.9
2019-06-27T02:13:06.763Z,21.8
2019-06-27T02:14:06.071Z,21.8
2019-06-27T02:15:06.494Z,21.8
2019-06-27T02:16:06.812Z,21.7
2019-06-27T02:17:06.127Z,21.7
2019-06-27T02:18:06.396Z,21.7
2019-06-27T02:19:06.688Z,21.7
2019-06-27T02:20:06.262Z,21.7
2019-06-27T02:21:06.604Z,21.8
2019-06-27T02:22:05.936Z,21.8
2019-06-27T02:23:06.210Z,21.7
2019-06-27T02:24:06.570Z,21.7
2019-06-27T02:25:06.096Z,21.8
2019-06-27T02:26:06.451Z,21.8
2019-06-27T02:27:06.771Z,21.8
2019-06-27T02:28:07.497Z,21.8
2019-06-27T02:29:06.763Z,21.8
2019-06-27T02:30:06.441Z,21.8
2019-06-27T02:31:06.853Z,21.8
2019-06-27T02:32:06.202Z,21.8
2019-06-27T02:33:06.516Z,21.8
2019-06-27T02:34:10.124Z,21.8
2019-06-27T02:35:06.594Z,21.8
2019-06-27T02:36:05.980Z,21.7
2019-06-27T02:37:06.340Z,21.7
2019-06-27T02:38:06.607Z,21.7
2019-06-27T02:39:06.131Z,21.7
2019-06-27T02:40:06.827Z,21.7
2019-06-27T02:41:06.174Z,21.7
2019-06-27T02:42:06.477Z,21.7
2019-06-27T02:43:06.819Z,21.7
2019-06-27T02:44:06.265Z,21.7
2019-06-27T02:45:06.875Z,21.6
2019-06-27T02:46:06.228Z,21.7
2019-06-27T02:47:06.514Z,21.7
2019-06-27T02:48:06.840Z,21.7
2019-06-27T02:49:06.202Z,21.7
2019-06-27T02:50:06.749Z,21.6
2019-06-27T02:51:06.184Z,21.6
2019-06-27T02:52:06.541Z,21.6
2019-06-27T02:53:06.817Z,21.6
2019-06-27T02:54:06.120Z,21.6
2019-06-27T02:55:06.599Z,21.6
2019-06-27T02:56:05.954Z,21.6
2019-06-27T02:57:06.254Z,21.6
2019-06-27T02:58:33.444Z,21.6
2019-06-27T02:59:06.755Z,21.6
2019-06-27T03:00:06.343Z,21.5
2019-06-27T03:01:06.377Z,21.5
2019-06-27T03:02:06.726Z,21.5
2019-06-27T03:03:06.001Z,21.5
2019-06-27T03:04:06.359Z,21.5
2019-06-27T03:05:06.878Z,21.4
2019-06-27T03:06:06.122Z,21.4
2019-06-27T03:07:06.496Z,21.4
2019-06-27T03:08:07.610Z,21.4
2019-06-27T03:09:06.324Z,21.4
2019-06-27T03:10:06.925Z,21.4
2019-06-27T03:11:06.237Z,21.4
2019-06-27T03:12:06.551Z,21.4
2019-06-27T03:13:06.832Z,21.4
2019-06-27T03:14:06.145Z,21.4
2019-06-27T03:15:06.580Z,21.3
2019-06-27T03:16:06.905Z,21.3
2019-06-27T03:17:06.261Z,21.3
2019-06-27T03:18:06.537Z,21.3
2019-06-27T03:19:06.820Z,21.3
2019-06-27T03:20:06.392Z,21.2
2019-06-27T03:21:06.714Z,21.2
2019-06-27T03:22:08.963Z,21.2
2019-06-27T03:23:06.244Z,21.1
2019-06-27T03:24:06.585Z,21.1
2019-06-27T03:25:06.106Z,21.1
2019-06-27T03:26:06.475Z,21.1
2019-06-27T03:27:06.927Z,21.1
2019-06-27T03:28:06.185Z,21.1
2019-06-27T03:29:06.425Z,21
2019-06-27T03:30:07.176Z,21
2019-06-27T03:31:06.698Z,21
2019-06-27T03:32:06.051Z,21.1
2019-06-27T03:33:06.505Z,21.1
2019-06-27T03:34:06.862Z,21.1
2019-06-27T03:35:06.568Z,21
2019-06-27T03:36:05.946Z,21.1
2019-06-27T03:37:06.300Z,21.1
2019-06-27T03:38:06.682Z,21.1
2019-06-27T03:39:06.100Z,21.1
2019-06-27T03:40:06.689Z,21.1
2019-06-27T03:41:06.001Z,21.1
2019-06-27T03:42:06.258Z,21.1
2019-06-27T03:43:06.643Z,21.1
2019-06-27T03:44:05.963Z,21.1
2019-06-27T03:45:06.435Z,21.1
2019-06-27T03:46:06.084Z,21.1
2019-06-27T03:47:06.327Z,21.1
2019-06-27T03:48:06.791Z,21.1
2019-06-27T03:49:06.060Z,21.1
2019-06-27T03:50:06.687Z,21.1
2019-06-27T03:51:05.933Z,21
2019-06-27T03:52:06.211Z,21
2019-06-27T03:53:06.558Z,21.1
2019-06-27T03:54:06.895Z,21
2019-06-27T03:55:06.405Z,21
2019-06-27T03:56:06.707Z,21
2019-06-27T03:57:05.990Z,21
2019-06-27T03:58:06.461Z,21
2019-06-27T03:59:15.701Z,21
2019-06-27T04:00:06.501Z,21
2019-06-27T04:01:06.504Z,21
2019-06-27T04:02:06.823Z,21
2019-06-27T04:03:06.210Z,21
2019-06-27T04:04:06.557Z,21
2019-06-27T04:05:07.092Z,21
2019-06-27T04:06:06.398Z,21
2019-06-27T04:07:06.725Z,21
2019-06-27T04:08:06.016Z,21
2019-06-27T04:09:06.482Z,21
2019-06-27T04:10:07.053Z,21
2019-06-27T04:11:06.326Z,21
2019-06-27T04:12:06.671Z,21
2019-06-27T04:13:06.033Z,21
2019-06-27T04:14:06.404Z,21
2019-06-27T04:15:06.834Z,21
2019-06-27T04:16:06.139Z,21.1
2019-06-27T04:17:06.461Z,21.1
2019-06-27T04:18:06.705Z,21.1
2019-06-27T04:19:05.959Z,21.1
2019-06-27T04:20:06.625Z,21.1
2019-06-27T04:21:05.986Z,21.1
2019-06-27T04:22:06.349Z,21.1
2019-06-27T04:23:06.627Z,21
2019-06-27T04:24:05.920Z,21
2019-06-27T04:25:06.459Z,21
2019-06-27T04:26:06.727Z,21
2019-06-27T04:27:06.048Z,21
2019-06-27T04:28:06.517Z,21
2019-06-27T04:29:06.835Z,21
2019-06-27T04:30:06.686Z,21
2019-06-27T04:31:06.019Z,21
2019-06-27T04:32:06.273Z,21
2019-06-27T04:33:06.589Z,21
2019-06-27T04:34:05.892Z,21
2019-06-27T04:35:06.378Z,21
2019-06-27T04:36:06.698Z,21
2019-06-27T04:37:05.991Z,21
2019-06-27T04:38:06.276Z,21
2019-06-27T04:39:06.681Z,21
2019-06-27T04:40:06.312Z,21
2019-06-27T04:41:06.572Z,21
2019-06-27T04:42:06.822Z,21
2019-06-27T04:43:08.982Z,21
2019-06-27T04:44:06.353Z,21
2019-06-27T04:45:06.845Z,21
2019-06-27T04:46:06.144Z,21
2019-06-27T04:47:06.418Z,21
2019-06-27T04:48:06.698Z,21
2019-06-27T04:49:05.979Z,21
2019-06-27T04:50:06.395Z,21.1
2019-06-27T04:51:06.707Z,21
2019-06-27T04:52:06.009Z,21
2019-06-27T04:53:06.262Z,21.1
2019-06-27T04:54:06.523Z,21.1
2019-06-27T04:55:07.175Z,21
2019-06-27T04:56:06.599Z,21.1
2019-06-27T04:57:06.881Z,21.1
2019-06-27T04:58:06.214Z,21.1
2019-06-27T04:59:06.503Z,21.1
2019-06-27T05:00:07.145Z,21.1
2019-06-27T05:01:06.441Z,21
2019-06-27T05:02:06.733Z,21
2019-06-27T05:03:06.009Z,21
2019-06-27T05:04:06.315Z,21
2019-06-27T05:05:06.769Z,21
2019-06-27T05:06:06.251Z,20.9
2019-06-27T05:07:06.679Z,20.9
2019-06-27T05:08:05.971Z,20.9
2019-06-27T05:09:06.445Z,20.8
2019-06-27T05:10:07.114Z,20.8
2019-06-27T05:11:06.406Z,20.8
2019-06-27T05:12:06.547Z,20.8
2019-06-27T05:13:07.661Z,20.8
2019-06-27T05:14:07.466Z,20.9
2019-06-27T05:15:06.081Z,20.9
2019-06-27T05:16:06.810Z,20.9
2019-06-27T05:17:06.144Z,20.9
2019-06-27T05:18:06.475Z,20.8
2019-06-27T05:19:09.157Z,20.8
2019-06-27T05:20:06.710Z,20.8
2019-06-27T05:21:06.108Z,20.7
2019-06-27T05:22:06.379Z,20.7
2019-06-27T05:23:06.660Z,20.6
2019-06-27T05:24:06.121Z,20.6
2019-06-27T05:25:07.429Z,20.6
2019-06-27T05:26:07.963Z,20.6
2019-06-27T05:27:06.275Z,20.6
2019-06-27T05:28:06.851Z,20.6
2019-06-27T05:29:06.305Z,20.6
2019-06-27T05:30:13.016Z,20.6
2019-06-27T05:31:06.825Z,20.6
2019-06-27T05:32:06.140Z,20.6
2019-06-27T05:33:06.481Z,20.6
2019-06-27T05:34:06.807Z,20.5
2019-06-27T05:35:06.708Z,20.5
2019-06-27T05:36:06.188Z,20.5
2019-06-27T05:37:06.487Z,20.5
2019-06-27T05:38:06.806Z,20.5
2019-06-27T05:39:06.519Z,20.5
2019-06-27T05:40:06.146Z,20.4
2019-06-27T05:41:06.660Z,20.4
2019-06-27T05:42:06.227Z,20.4
2019-06-27T05:43:06.504Z,20.4
2019-06-27T05:44:06.787Z,20.4
2019-06-27T05:45:06.520Z,20.4
2019-06-27T05:46:06.018Z,20.4
2019-06-27T05:47:06.330Z,20.3
2019-06-27T05:48:06.812Z,20.4
2019-06-27T05:49:06.114Z,20.3
2019-06-27T05:50:06.636Z,20.3
2019-06-27T05:51:05.999Z,20.4
2019-06-27T05:52:06.346Z,20.4
2019-06-27T05:53:06.622Z,20.4
2019-06-27T05:54:06.251Z,20.4
2019-06-27T05:55:07.166Z,20.4
2019-06-27T05:56:13.657Z,20.4
2019-06-27T05:57:06.015Z,20.4
2019-06-27T05:58:06.347Z,20.4
2019-06-27T05:59:06.663Z,20.4
2019-06-27T06:00:06.154Z,20.4
2019-06-27T06:01:06.241Z,20.4
2019-06-27T06:02:06.435Z,20.4
2019-06-27T06:03:06.818Z,20.5
2019-06-27T06:04:06.225Z,20.5
2019-06-27T06:05:06.695Z,20.5
2019-06-27T06:06:06.691Z,20.5
2019-06-27T06:07:05.954Z,20.5
2019-06-27T06:08:06.314Z,20.6
2019-06-27T06:09:06.677Z,20.6
2019-06-27T06:10:06.234Z,20.6
2019-06-27T06:11:06.619Z,20.6
2019-06-27T06:12:05.968Z,20.7
2019-06-27T06:13:07.207Z,20.7
2019-06-27T06:14:06.677Z,20.7
2019-06-27T06:15:06.110Z,20.7
2019-06-27T06:16:06.424Z,20.7
2019-06-27T06:17:06.761Z,20.7
2019-06-27T06:18:06.100Z,20.7
2019-06-27T06:19:06.463Z,20.7
2019-06-27T06:20:06.965Z,20.7
2019-06-27T06:21:06.083Z,20.7
2019-06-27T06:22:06.629Z,20.7
2019-06-27T06:23:05.964Z,20.7
2019-06-27T06:24:06.167Z,20.7
2019-06-27T06:25:06.553Z,20.7
2019-06-27T06:26:06.080Z,20.7
2019-06-27T06:27:06.408Z,20.8
2019-06-27T06:28:06.803Z,20.8
2019-06-27T06:29:06.095Z,20.8
2019-06-27T06:30:07.913Z,20.9
2019-06-27T06:31:06.340Z,20.9
2019-06-27T06:32:06.711Z,20.9
2019-06-27T06:33:06.151Z,20.9
2019-06-27T06:34:06.309Z,20.9
2019-06-27T06:35:06.903Z,20.9
2019-06-27T06:36:06.356Z,20.9
2019-06-27T06:37:11.168Z,20.9
2019-06-27T06:38:07.156Z,20.9
2019-06-27T06:39:07.107Z,20.9
2019-06-27T06:40:07.425Z,20.9
2019-06-27T06:41:08.870Z,20.8
2019-06-27T06:42:10.466Z,20.9
2019-06-27T06:43:07.341Z,20.9
2019-06-27T06:44:06.441Z,20.9
2019-06-27T06:45:06.741Z,20.9
2019-06-27T06:46:07.221Z,20.9
2019-06-27T06:47:07.106Z,20.9
2019-06-27T06:48:07.691Z,20.9
2019-06-27T06:49:14.397Z,20.9
2019-06-27T06:50:06.190Z,20.9
2019-06-27T06:51:06.446Z,20.9
2019-06-27T06:52:07.123Z,20.9
2019-06-27T06:53:06.423Z,21
2019-06-27T06:54:06.764Z,21
2019-06-27T06:55:06.224Z,20.9
2019-06-27T06:56:06.533Z,20.9
2019-06-27T06:57:06.810Z,20.9
2019-06-27T06:58:06.303Z,20.9
2019-06-27T06:59:06.875Z,20.9
2019-06-27T07:00:06.653Z,21
2019-06-27T07:01:06.015Z,21
2019-06-27T07:02:06.363Z,21
2019-06-27T07:03:06.780Z,21
2019-06-27T07:04:06.236Z,21.1
2019-06-27T07:05:06.892Z,21.1
2019-06-27T07:06:06.067Z,21.1
2019-06-27T07:07:06.361Z,21
2019-06-27T07:08:07.142Z,21
2019-06-27T07:09:06.791Z,21
2019-06-27T07:10:06.489Z,21
2019-06-27T07:11:06.136Z,21
2019-06-27T07:12:06.496Z,21
2019-06-27T07:13:06.790Z,21
2019-06-27T07:14:06.203Z,21
2019-06-27T07:15:06.692Z,20.9
2019-06-27T07:16:06.053Z,20.9
2019-06-27T07:17:06.340Z,20.9
2019-06-27T07:18:06.835Z,20.9
2019-06-27T07:19:06.373Z,20.9
2019-06-27T07:20:07.339Z,20.8
2019-06-27T07:21:06.664Z,20.8
2019-06-27T07:22:05.941Z,20.9
2019-06-27T07:23:06.227Z,20.8
2019-06-27T07:24:07.160Z,20.8
2019-06-27T07:25:07.372Z,20.8
2019-06-27T07:26:06.805Z,20.8
2019-06-27T07:27:06.160Z,20.8
2019-06-27T07:28:06.509Z,20.7
2019-06-27T07:29:06.854Z,20.7
2019-06-27T07:30:06.638Z,20.8
2019-06-27T07:31:20.361Z,20.9
2019-06-27T07:32:06.411Z,20.9
2019-06-27T07:33:05.978Z,21
2019-06-27T07:34:06.279Z,21
2019-06-27T07:35:06.807Z,21
2019-06-27T07:36:06.096Z,21
2019-06-27T07:37:06.330Z,21.1
2019-06-27T07:38:06.656Z,21.1
2019-06-27T07:39:06.087Z,21.1
2019-06-27T07:40:06.774Z,21.1
2019-06-27T07:41:06.261Z,21.1
2019-06-27T07:42:06.613Z,21.1
2019-06-27T07:43:06.860Z,21.1
2019-06-27T07:44:06.170Z,21.2
2019-06-27T07:45:06.737Z,21.2
2019-06-27T07:46:06.543Z,21.3
2019-06-27T07:47:06.247Z,21.2
2019-06-27T07:48:06.505Z,21.2
2019-06-27T07:49:06.756Z,21.2
2019-06-27T07:50:06.500Z,21.1
2019-06-27T07:51:06.827Z,21.1
2019-06-27T07:52:06.330Z,21.1
2019-06-27T07:53:06.640Z,21.1
2019-06-27T07:54:06.029Z,21.1
2019-06-27T07:55:06.498Z,21.1
2019-06-27T07:56:06.879Z,21.2
2019-06-27T07:57:06.431Z,21.2
2019-06-27T07:58:06.015Z,21.2
2019-06-27T07:59:06.295Z,21.2
2019-06-27T08:00:07.000Z,21.2
2019-06-27T08:01:06.711Z,21.2
2019-06-27T08:02:06.025Z,21.1
2019-06-27T08:03:06.363Z,21.1
2019-06-27T08:04:06.694Z,21.1
2019-06-27T08:05:06.176Z,21.1
2019-06-27T08:06:06.160Z,21.1
2019-06-27T08:07:06.471Z,21.1
2019-06-27T08:08:06.775Z,21.1
2019-06-27T08:09:06.254Z,21.1
2019-06-27T08:10:06.945Z,21.2
2019-06-27T08:11:06.281Z,21.2
2019-06-27T08:12:06.607Z,21.3
2019-06-27T08:13:06.877Z,21.4
2019-06-27T08:14:06.134Z,21.5
2019-06-27T08:15:06.636Z,21.5
2019-06-27T08:16:06.024Z,21.6
2019-06-27T08:17:06.357Z,21.6
2019-06-27T08:18:06.690Z,21.7
2019-06-27T08:19:05.971Z,21.7
2019-06-27T08:20:06.645Z,21.7
2019-06-27T08:21:06.033Z,21.7
2019-06-27T08:22:06.778Z,21.7
2019-06-27T08:23:06.261Z,21.7
2019-06-27T08:24:06.556Z,21.7
2019-06-27T08:25:07.081Z,21.8
2019-06-27T08:26:06.481Z,21.8
2019-06-27T08:27:06.801Z,21.8
2019-06-27T08:28:06.205Z,21.9
2019-06-27T08:29:06.586Z,21.9
2019-06-27T08:30:09.781Z,22
2019-06-27T08:31:06.163Z,22
2019-06-27T08:32:06.466Z,22
2019-06-27T08:33:06.716Z,22.1
2019-06-27T08:34:06.037Z,22.1
2019-06-27T08:35:06.513Z,22.1
2019-06-27T08:36:06.759Z,22
2019-06-27T08:37:06.127Z,22
2019-06-27T08:38:06.416Z,22.1
2019-06-27T08:39:06.899Z,22.1
2019-06-27T08:40:06.477Z,22.1
2019-06-27T08:41:06.806Z,22.2
2019-06-27T08:42:06.844Z,22.2
2019-06-27T08:43:06.151Z,22.3
2019-06-27T08:44:06.424Z,22.3
2019-06-27T08:45:06.803Z,22.3
2019-06-27T08:46:13.218Z,22.3
2019-06-27T08:47:13.076Z,22.4
2019-06-27T08:48:13.795Z,22.3
2019-06-27T08:49:15.187Z,22.4
2019-06-27T08:50:39.143Z,22.3
2019-06-27T08:51:30.770Z,22.3
2019-06-27T08:52:06.111Z,22.4
2019-06-27T08:53:06.324Z,22.4
2019-06-27T08:54:06.559Z,22.4
2019-06-27T08:55:07.088Z,22.5
2019-06-27T08:56:07.428Z,22.5
2019-06-27T08:57:06.893Z,22.5
2019-06-27T08:58:06.955Z,22.6
2019-06-27T08:59:06.476Z,22.6
2019-06-27T09:00:06.411Z,22.6
2019-06-27T09:01:06.343Z,22.6
2019-06-27T09:02:12.214Z,22.6
2019-06-27T09:03:07.089Z,22.7
2019-06-27T09:04:06.825Z,22.7
2019-06-27T09:05:06.393Z,22.7
2019-06-27T09:06:06.068Z,22.7
2019-06-27T09:07:06.381Z,22.7
2019-06-27T09:08:06.755Z,22.7
2019-06-27T09:09:06.606Z,22.6
2019-06-27T09:10:07.176Z,22.7
2019-06-27T09:11:06.903Z,22.7
2019-06-27T09:12:06.781Z,22.7
2019-06-27T09:13:06.878Z,22.7
2019-06-27T09:14:06.231Z,22.7
2019-06-27T09:15:06.752Z,22.7
2019-06-27T09:16:06.236Z,22.7
2019-06-27T09:17:06.585Z,22.7
2019-06-27T09:18:06.873Z,22.8
2019-06-27T09:19:06.171Z,22.8
2019-06-27T09:20:06.927Z,22.9
2019-06-27T09:21:06.729Z,22.9
2019-06-27T09:22:06.198Z,22.9
2019-06-27T09:23:06.764Z,22.9
2019-06-27T09:24:06.280Z,23
2019-06-27T09:25:06.928Z,23
2019-06-27T09:26:06.387Z,23
2019-06-27T09:27:07.011Z,23
2019-06-27T09:28:06.652Z,23
2019-06-27T09:29:05.917Z,23
2019-06-27T09:30:06.740Z,23
2019-06-27T09:31:06.122Z,23
2019-06-27T09:32:06.427Z,23
2019-06-27T09:33:06.541Z,23
2019-06-27T09:34:06.835Z,23.1
2019-06-27T09:35:06.309Z,23.1
2019-06-27T09:36:06.595Z,23.1
2019-06-27T09:37:06.906Z,23.1
2019-06-27T09:38:06.227Z,23.2
2019-06-27T09:39:06.662Z,23.2
2019-06-27T09:40:06.222Z,23.2
2019-06-27T09:41:06.530Z,23.2
2019-06-27T09:42:06.739Z,23.2
2019-06-27T09:43:06.070Z,23.2
2019-06-27T09:44:06.387Z,23.2
2019-06-27T09:45:06.789Z,23.2
2019-06-27T09:46:06.106Z,23.3
2019-06-27T09:47:06.480Z,23.3
2019-06-27T09:48:06.767Z,23.3
2019-06-27T09:49:06.128Z,23.3
2019-06-27T09:50:06.787Z,23.3
2019-06-27T09:51:06.135Z,23.3
2019-06-27T09:52:06.433Z,23.3
2019-06-27T09:53:06.755Z,23.4
2019-06-27T09:54:06.109Z,23.4
2019-06-27T09:55:06.521Z,23.5
2019-06-27T09:56:06.808Z,23.5
2019-06-27T09:57:06.153Z,23.5
2019-06-27T09:58:06.588Z,23.6
2019-06-27T09:59:06.823Z,23.6
2019-06-27T10:00:06.347Z,23.6
2019-06-27T10:01:09.215Z,23.6
2019-06-27T10:02:06.564Z,23.7
2019-06-27T10:03:06.891Z,23.7
2019-06-27T10:04:06.173Z,23.7
2019-06-27T10:05:06.794Z,23.7
2019-06-27T10:06:06.151Z,23.7
2019-06-27T10:07:06.496Z,23.7
2019-06-27T10:08:06.862Z,23.7
2019-06-27T10:09:06.357Z,23.8
2019-06-27T10:10:06.968Z,23.8
2019-06-27T10:11:06.278Z,23.8
2019-06-27T10:12:06.550Z,23.8
2019-06-27T10:13:06.845Z,23.8
2019-06-27T10:14:06.202Z,23.8
2019-06-27T10:15:06.711Z,23.8
2019-06-27T10:16:06.021Z,23.8
2019-06-27T10:17:06.329Z,23.8
2019-06-27T10:18:06.628Z,23.9
2019-06-27T10:19:05.999Z,23.9
2019-06-27T10:20:06.479Z,24
2019-06-27T10:21:06.793Z,24
2019-06-27T10:22:06.113Z,24
2019-06-27T10:23:06.507Z,24.1
2019-06-27T10:24:06.897Z,24.1
2019-06-27T10:25:06.417Z,24.1
2019-06-27T10:26:06.658Z,24.2
2019-06-27T10:27:05.992Z,24.2
2019-06-27T10:28:06.271Z,24.2
2019-06-27T10:29:06.594Z,24.2
2019-06-27T10:30:07.185Z,24.2
2019-06-27T10:31:06.611Z,24.2
2019-06-27T10:32:05.932Z,24.3
2019-06-27T10:33:06.209Z,24.3
2019-06-27T10:34:06.628Z,24.3
2019-06-27T10:35:06.086Z,24.3
2019-06-27T10:36:06.207Z,24.4
2019-06-27T10:37:06.534Z,24.4
2019-06-27T10:38:06.803Z,24.4
2019-06-27T10:39:06.227Z,24.5
2019-06-27T10:40:07.184Z,24.5
2019-06-27T10:41:06.514Z,24.5
2019-06-27T10:42:06.834Z,24.5
2019-06-27T10:43:06.141Z,24.6
2019-06-27T10:44:06.494Z,24.7
2019-06-27T10:45:06.918Z,24.7
2019-06-27T10:46:06.212Z,24.8
2019-06-27T10:47:06.508Z,24.8
2019-06-27T10:48:06.931Z,24.8
2019-06-27T10:49:06.244Z,24.9
2019-06-27T10:50:06.920Z,25
2019-06-27T10:51:06.169Z,25
2019-06-27T10:52:06.535Z,25.1
2019-06-27T10:53:06.809Z,25.2
2019-06-27T10:54:06.271Z,25.3
2019-06-27T10:55:06.766Z,25.3
2019-06-27T10:56:06.065Z,25.3
2019-06-27T10:57:06.388Z,25.4
2019-06-27T10:58:06.733Z,25.4
2019-06-27T10:59:06.045Z,25.4
2019-06-27T11:00:06.919Z,25.5
2019-06-27T11:01:06.340Z,25.5
2019-06-27T11:02:06.747Z,25.6
2019-06-27T11:03:18.052Z,25.7
2019-06-27T11:04:06.419Z,25.7
2019-06-27T11:05:06.860Z,25.8
2019-06-27T11:06:06.248Z,25.9
2019-06-27T11:07:06.536Z,25.9
2019-06-27T11:08:06.794Z,26
2019-06-27T11:09:06.282Z,26
2019-06-27T11:10:06.803Z,26.1
2019-06-27T11:11:06.148Z,26.1
2019-06-27T11:12:06.471Z,26.1
2019-06-27T11:13:06.781Z,26.1
2019-06-27T11:14:06.102Z,26.1
2019-06-27T11:15:06.633Z,26.1
2019-06-27T11:16:06.202Z,26.1
2019-06-27T11:17:06.578Z,26.1
2019-06-27T11:18:06.878Z,26.2
2019-06-27T11:19:06.140Z,26.2
2019-06-27T11:20:07.080Z,26.3
2019-06-27T11:21:06.399Z,26.4
2019-06-27T11:22:06.737Z,26.4
2019-06-27T11:23:06.120Z,26.5
2019-06-27T11:24:06.472Z,26.5
2019-06-27T11:25:06.980Z,26.6
2019-06-27T11:26:09.333Z,26.6
2019-06-27T11:27:06.903Z,26.6
2019-06-27T11:28:06.225Z,26.6
2019-06-27T11:29:07.537Z,26.6
2019-06-27T11:30:07.606Z,26.6
2019-06-27T11:31:06.120Z,26.5
2019-06-27T11:32:06.608Z,26.5
2019-06-27T11:33:06.915Z,26.5
2019-06-27T11:34:06.211Z,26.5
2019-06-27T11:35:06.797Z,26.5
2019-06-27T11:36:06.294Z,26.5
2019-06-27T11:37:06.576Z,26.6
2019-06-27T11:38:05.921Z,26.7
2019-06-27T11:39:06.288Z,26.7
2019-06-27T11:40:06.877Z,26.8
2019-06-27T11:41:05.936Z,26.8
2019-06-27T11:42:06.250Z,26.8
2019-06-27T11:43:06.611Z,26.9
2019-06-27T11:44:05.882Z,26.9
2019-06-27T11:45:06.319Z,26.9
2019-06-27T11:46:10.150Z,26.9
2019-06-27T11:47:06.419Z,27
2019-06-27T11:48:06.770Z,27
2019-06-27T11:49:06.120Z,26.9
2019-06-27T11:50:07.425Z,26.9
2019-06-27T11:51:06.819Z,26.9
2019-06-27T11:52:06.093Z,27
2019-06-27T11:53:06.545Z,27
2019-06-27T11:54:06.785Z,27
2019-06-27T11:55:06.334Z,27.1
2019-06-27T11:56:06.634Z,27.1
2019-06-27T11:57:05.978Z,27.2
2019-06-27T11:58:06.282Z,27.2
2019-06-27T11:59:06.594Z,27.3
2019-06-27T12:00:06.192Z,27.3
2019-06-27T12:01:06.302Z,27.3
2019-06-27T12:02:06.613Z,27.3
2019-06-27T12:03:05.949Z,27.3
2019-06-27T12:04:06.200Z,27.3
2019-06-27T12:05:06.832Z,27.4
2019-06-27T12:06:06.157Z,27.4
2019-06-27T12:07:06.441Z,27.5
2019-06-27T12:08:09.925Z,27.5
2019-06-27T12:09:06.403Z,27.6
2019-06-27T12:10:06.978Z,27.6
2019-06-27T12:11:06.415Z,27.6
2019-06-27T12:12:06.741Z,27.6
2019-06-27T12:13:06.052Z,27.6
2019-06-27T12:14:06.385Z,27.7
2019-06-27T12:15:06.883Z,27.7
2019-06-27T12:16:06.221Z,27.7
2019-06-27T12:17:06.537Z,27.7
2019-06-27T12:18:06.841Z,27.8
2019-06-27T12:19:06.183Z,27.8
2019-06-27T12:20:06.727Z,27.8
2019-06-27T12:21:09.280Z,27.8
2019-06-27T12:22:06.646Z,27.8
2019-06-27T12:23:05.922Z,27.7
2019-06-27T12:24:06.231Z,27.7
2019-06-27T12:25:06.713Z,27.7
2019-06-27T12:26:06.277Z,27.8
2019-06-27T12:27:06.663Z,27.7
2019-06-27T12:28:05.963Z,27.7
2019-06-27T12:29:06.296Z,27.7
2019-06-27T12:30:07.087Z,27.7
2019-06-27T12:31:23.045Z,27.7
2019-06-27T12:32:06.348Z,27.7
2019-06-27T12:33:06.650Z,27.7
2019-06-27T12:34:10.470Z,27.8
2019-06-27T12:35:06.942Z,27.8
2019-06-27T12:36:07.924Z,27.8
2019-06-27T12:37:06.550Z,27.8
2019-06-27T12:38:06.495Z,27.8
2019-06-27T12:39:06.884Z,27.8
2019-06-27T12:40:06.447Z,27.8
2019-06-27T12:41:06.782Z,27.8
2019-06-27T12:42:06.092Z,27.8
2019-06-27T12:43:06.362Z,27.8
2019-06-27T12:44:06.625Z,27.8
2019-06-27T12:45:06.045Z,27.8
2019-06-27T12:46:06.572Z,27.8
2019-06-27T12:47:06.117Z,27.8
2019-06-27T12:48:10.253Z,27.8
2019-06-27T12:49:06.546Z,27.8
2019-06-27T12:50:07.306Z,27.8
2019-06-27T12:51:06.710Z,27.9
2019-06-27T12:52:06.063Z,27.9
2019-06-27T12:53:06.362Z,27.9
2019-06-27T12:54:06.666Z,27.9
2019-06-27T12:55:06.381Z,27.9
2019-06-27T12:56:06.343Z,27.8
2019-06-27T12:57:07.228Z,27.8
2019-06-27T12:58:07.241Z,27.8
2019-06-27T12:59:06.618Z,27.8
2019-06-27T13:00:10.170Z,27.8
2019-06-27T13:01:06.940Z,27.8
2019-06-27T13:02:06.388Z,27.9
2019-06-27T13:03:06.623Z,27.9
2019-06-27T13:04:13.454Z,27.9
2019-06-27T13:05:06.535Z,27.9
2019-06-27T13:06:06.255Z,27.9
2019-06-27T13:07:07.315Z,27.9
2019-06-27T13:08:06.490Z,27.9
2019-06-27T13:09:06.661Z,27.9
2019-06-27T13:10:06.864Z,27.9
2019-06-27T13:11:06.851Z,27.9
2019-06-27T13:12:06.684Z,27.9
2019-06-27T13:13:06.660Z,27.9
2019-06-27T13:14:05.994Z,27.9
2019-06-27T13:15:12.712Z,27.9
2019-06-27T13:16:06.443Z,27.9
2019-06-27T13:17:06.458Z,27.9
2019-06-27T13:18:06.497Z,27.9
2019-06-27T13:19:06.567Z,27.8
2019-06-27T13:20:06.804Z,27.8
2019-06-27T13:21:06.811Z,27.8
2019-06-27T13:22:07.034Z,27.8
2019-06-27T13:23:07.127Z,27.8
2019-06-27T13:24:07.232Z,27.9
2019-06-27T13:25:07.322Z,27.9
2019-06-27T13:26:06.323Z,27.8
2019-06-27T13:27:06.406Z,27.8